Terminal Aerodrome Forecast
Issued by NWS

Home | Current Version | Previous Version | Text Only | Print | Product List | Glossary On
Versions: 1 2 3 4 5 6 7 8 9 10 11 12 13 14 15 16 17 18 19 20 21 22 23
000
FTUS45 KGJT 301120
TAFVEL
TAF
KVEL 301120Z 3012/3112 06004KT P6SM OVC100
     FM302000 21008KT P6SM -SHRA OVC080
     FM310100 10008KT P6SM -RA BKN050 OVC080
     FM310400 04010KT P6SM -RA OVC050
     FM311100 02010G18KT P6SM -RA BKN060=

USA.gov is the U.S. government's official web portal to all federal, state and local government web resources and services.